Time;durP1;ratioP1;P1;durP2;ratioP2;P2;SDS_P1;SDS_P2;PMS_P1;PMS_P2;Temp;Humidity;BMP_temperature;BMP_pressure;BME280_temperature;BME280_humidity;BME280_pressure;Samples;Min_cycle;Max_cycle;Signal;HPM_P1;HPM_P2
2023/06/17 00:03:07;;;;;;;;;;;14.70;99.90;;;;;;20745783;28;19913;-76
2023/06/17 00:13:08;;;;;;;;;;;14.90;99.90;;;;;;20744388;28;19918;-76
2023/06/17 00:23:09;;;;;;;;;;;14.90;99.90;;;;;;20743986;28;20372;-75
2023/06/17 00:33:10;;;;;;;;;;;14.70;99.90;;;;;;20743614;28;19917;-76
2023/06/17 00:43:10;;;;;;;;;;;14.30;99.90;;;;;;20760433;28;19942;-74
2023/06/17 00:53:11;;;;;;;;;;;14.00;99.90;;;;;;20758562;28;20441;-75
2023/06/17 01:03:11;;;;;;;;;;;13.90;99.90;;;;;;20773599;28;19917;-75
2023/06/17 01:13:15;;;;;;;;;;;14.00;99.90;;;;;;20757626;28;19972;-75
2023/06/17 01:23:16;;;;;;;;;;;13.90;99.90;;;;;;20773463;28;20287;-75
2023/06/17 01:33:17;;;;;;;;;;;13.70;99.90;;;;;;20771086;28;19980;-75
2023/06/17 01:43:18;;;;;;;;;;;13.90;99.90;;;;;;20755645;28;19913;-74
2023/06/17 01:53:22;;;;;;;;;;;13.60;99.90;;;;;;20754237;28;19964;-75
2023/06/17 02:03:23;;;;;;;;;;;13.50;99.90;;;;;;20754077;28;19963;-75
2023/06/17 02:13:24;;;;;;;;;;;13.10;99.90;;;;;;20768528;28;19925;-75
2023/06/17 02:23:26;;;;;;;;;;;13.50;99.90;;;;;;20771241;28;20076;-76
2023/06/17 02:33:27;;;;;;;;;;;14.00;99.90;;;;;;20777144;28;19924;-76
2023/06/17 02:43:28;;;;;;;;;;;13.70;99.90;;;;;;20750444;28;20339;-75
2023/06/17 02:53:30;;;;;;;;;;;13.30;99.90;;;;;;20765414;28;19956;-75
2023/06/17 03:03:36;;;;;;;;;;;12.80;99.90;;;;;;20764893;28;19913;-76
2023/06/17 03:13:38;;;;;;;;;;;13.00;99.90;;;;;;20922425;23;20379;-72
2023/06/17 03:23:48;;;;;;;;;;;13.00;99.90;;;;;;20908806;28;20227;-72
2023/06/17 03:33:52;;;;;;;;;;;13.30;99.90;;;;;;20908437;28;19963;-72
2023/06/17 03:43:54;;;;;;;;;;;13.50;99.90;;;;;;20921505;28;19913;-72
2023/06/17 03:53:56;;;;;;;;;;;13.60;99.90;;;;;;20920662;28;19917;-72
2023/06/17 04:03:57;;;;;;;;;;;13.70;99.90;;;;;;20920057;28;20283;-71
2023/06/17 04:13:59;;;;;;;;;;;13.90;99.90;;;;;;20904338;28;19917;-72
2023/06/17 04:23:59;;;;;;;;;;;13.80;99.90;;;;;;20901475;28;19920;-72
2023/06/17 04:34:00;;;;;;;;;;;14.20;99.90;;;;;;20902081;28;20271;-72
2023/06/17 04:44:01;;;;;;;;;;;14.30;99.90;;;;;;20918415;28;19919;-70
2023/06/17 04:54:04;;;;;;;;;;;14.40;99.90;;;;;;20918095;28;19924;-72
2023/06/17 05:04:07;;;;;;;;;;;14.50;99.90;;;;;;20902537;28;19952;-72
2023/06/17 05:14:08;;;;;;;;;;;14.50;99.90;;;;;;20917219;28;20290;-71
2023/06/17 05:24:09;;;;;;;;;;;14.70;99.90;;;;;;20917108;28;20264;-72
2023/06/17 05:34:10;;;;;;;;;;;15.20;99.90;;;;;;20926311;28;20007;-72
2023/06/17 05:44:12;;;;;;;;;;;15.70;99.90;;;;;;20914822;28;19913;-72
2023/06/17 05:54:13;;;;;;;;;;;16.00;99.90;;;;;;20930350;28;19999;-72
2023/06/17 06:04:14;;;;;;;;;;;16.60;99.90;;;;;;20929364;28;20006;-72
2023/06/17 06:14:15;;;;;;;;;;;16.90;99.90;;;;;;20913233;28;19921;-72
2023/06/17 06:24:16;;;;;;;;;;;17.30;99.90;;;;;;20927462;28;19959;-74
2023/06/17 06:34:17;;;;;;;;;;;17.90;99.90;;;;;;20909101;28;19927;-75
2023/06/17 06:44:18;;;;;;;;;;;18.80;99.90;;;;;;20925389;28;19912;-75
2023/06/17 06:54:19;;;;;;;;;;;19.40;99.90;;;;;;20908697;28;19924;-74
2023/06/17 07:04:22;;;;;;;;;;;19.70;99.90;;;;;;20910081;28;19913;-75
2023/06/17 07:14:28;;;;;;;;;;;20.30;99.90;;;;;;20908772;28;19974;-75
2023/06/17 07:24:29;;;;;;;;;;;20.60;99.90;;;;;;20924273;28;19913;-75
2023/06/17 07:34:30;;;;;;;;;;;21.20;99.90;;;;;;20923577;28;20371;-74
2023/06/17 07:44:32;;;;;;;;;;;22.70;99.70;;;;;;20922949;28;20272;-75
2023/06/17 07:54:35;;;;;;;;;;;22.80;98.70;;;;;;20906503;28;19986;-75
2023/06/17 08:04:36;;;;;;;;;;;23.30;97.30;;;;;;20905783;28;19991;-75
2023/06/17 08:14:37;;;;;;;;;;;22.30;98.90;;;;;;20904034;28;19916;-75
2023/06/17 08:24:37;;;;;;;;;;;23.40;97.60;;;;;;20903409;28;19963;-74
2023/06/17 08:34:38;;;;;;;;;;;25.10;95.90;;;;;;20904498;28;20338;-75
2023/06/17 08:44:41;;;;;;;;;;;25.80;95.10;;;;;;20904416;28;19920;-75
2023/06/17 08:54:42;;;;;;;;;;;26.50;94.00;;;;;;20903978;28;19917;-75
2023/06/17 09:04:43;;;;;;;;;;;27.50;91.90;;;;;;20915836;23;20048;-83
2023/06/17 09:14:44;;;;;;;;;;;28.10;91.50;;;;;;20718087;22;19925;-79
2023/06/17 09:24:46;;;;;;;;;;;27.70;91.30;;;;;;20694495;28;19920;-80
2023/06/17 09:34:48;;;;;;;;;;;28.50;88.90;;;;;;20685003;28;19921;-80
2023/06/17 09:44:48;;;;;;;;;;;28.70;86.00;;;;;;20673866;28;20380;-79
2023/06/17 09:54:50;;;;;;;;;;;30.20;82.60;;;;;;20703388;28;19923;-79
2023/06/17 10:04:52;;;;;;;;;;;29.50;79.10;;;;;;20754136;28;20393;-79
2023/06/17 10:14:52;;;;;;;;;;;29.50;71.90;;;;;;20591057;28;19918;-77
2023/06/17 10:24:53;;;;;;;;;;;31.10;71.20;;;;;;20590438;28;20423;-76
2023/06/17 10:35:06;;;;;;;;;;;29.90;66.30;;;;;;20588200;28;19918;-77
2023/06/17 10:45:13;;;;;;;;;;;28.80;65.80;;;;;;20668520;28;20343;-78
2023/06/17 10:55:14;;;;;;;;;;;28.30;67.20;;;;;;20669427;28;19918;-77
2023/06/17 11:05:15;;;;;;;;;;;30.20;69.10;;;;;;20667195;28;19921;-78
2023/06/17 11:15:16;;;;;;;;;;;31.40;65.10;;;;;;20664948;28;19925;-79
2023/06/17 11:25:18;;;;;;;;;;;30.80;64.70;;;;;;20665904;28;20296;-77
2023/06/17 11:35:19;;;;;;;;;;;30.20;64.00;;;;;;20664221;28;19976;-78
2023/06/17 11:45:20;;;;;;;;;;;29.70;64.00;;;;;;20663978;28;19921;-78
2023/06/17 11:55:28;;;;;;;;;;;30.10;65.50;;;;;;20677567;28;19918;-78
2023/06/17 12:05:29;;;;;;;;;;;30.20;63.00;;;;;;20709330;28;19917;-77
2023/06/17 12:15:29;;;;;;;;;;;30.30;65.70;;;;;;20660872;28;20339;-78
2023/06/17 12:25:36;;;;;;;;;;;30.20;60.90;;;;;;20660637;28;20292;-78
2023/06/17 12:35:37;;;;;;;;;;;29.40;60.00;;;;;;20669327;28;20055;-78
2023/06/17 12:45:38;;;;;;;;;;;29.20;60.90;;;;;;20692135;28;19956;-76
2023/06/17 12:55:39;;;;;;;;;;;29.40;60.70;;;;;;20712569;28;20322;-75
2023/06/17 13:05:39;;;;;;;;;;;29.50;60.70;;;;;;20702289;28;19964;-76
2023/06/17 13:15:40;;;;;;;;;;;29.60;60.20;;;;;;20658173;28;19964;-76
2023/06/17 13:25:41;;;;;;;;;;;29.80;60.50;;;;;;20657717;28;19914;-76
2023/06/17 13:35:42;;;;;;;;;;;29.40;59.40;;;;;;20662363;28;19917;-76
2023/06/17 13:45:42;;;;;;;;;;;29.60;60.30;;;;;;20657243;28;19921;-76
2023/06/17 13:55:43;;;;;;;;;;;30.10;57.70;;;;;;20666543;28;19917;-76
2023/06/17 14:05:43;;;;;;;;;;;30.80;58.70;;;;;;20671253;28;20402;-77
2023/06/17 14:15:44;;;;;;;;;;;29.60;58.00;;;;;;20669809;28;19921;-76
2023/06/17 14:25:45;;;;;;;;;;;29.40;60.10;;;;;;20669066;28;19976;-76
2023/06/17 14:35:45;;;;;;;;;;;30.00;60.50;;;;;;20666598;28;19917;-76
2023/06/17 14:45:46;;;;;;;;;;;30.00;61.50;;;;;;20667960;28;19924;-75
2023/06/17 14:55:47;;;;;;;;;;;29.30;61.00;;;;;;20702649;28;19933;-76
2023/06/17 15:05:48;;;;;;;;;;;29.70;61.00;;;;;;20767343;23;19925;-76
2023/06/17 15:15:48;;;;;;;;;;;29.40;60.10;;;;;;20859448;28;19925;-76
2023/06/17 15:25:49;;;;;;;;;;;29.50;62.40;;;;;;20827818;28;19917;-77
2023/06/17 15:35:50;;;;;;;;;;;29.70;61.10;;;;;;20830256;28;19956;-76
2023/06/17 15:45:50;;;;;;;;;;;29.70;62.10;;;;;;20840315;28;19960;-77
2023/06/17 15:55:51;;;;;;;;;;;29.70;61.70;;;;;;20825158;28;20268;-75
2023/06/17 16:05:52;;;;;;;;;;;29.20;59.60;;;;;;20839396;28;19917;-78
2023/06/17 16:15:52;;;;;;;;;;;28.50;61.50;;;;;;20812351;28;20185;-77
2023/06/17 16:25:53;;;;;;;;;;;28.90;63.60;;;;;;20783830;28;20303;-77
2023/06/17 16:35:55;;;;;;;;;;;28.90;62.70;;;;;;20809820;28;19917;-76
2023/06/17 16:45:56;;;;;;;;;;;28.50;63.50;;;;;;20824330;28;19928;-76
2023/06/17 16:55:56;;;;;;;;;;;28.70;64.10;;;;;;20783507;28;19964;-77
2023/06/17 17:05:57;;;;;;;;;;;28.50;65.50;;;;;;20786999;28;19917;-77
2023/06/17 17:15:58;;;;;;;;;;;28.60;65.00;;;;;;20820413;28;19944;-76
2023/06/17 17:25:58;;;;;;;;;;;28.30;63.60;;;;;;20771607;28;20299;-77
2023/06/17 17:36:00;;;;;;;;;;;28.00;70.60;;;;;;20771320;28;19971;-77
2023/06/17 17:46:02;;;;;;;;;;;27.60;74.00;;;;;;20762512;28;19913;-76
2023/06/17 17:56:03;;;;;;;;;;;27.20;79.60;;;;;;20765117;28;19986;-75
2023/06/17 18:06:04;;;;;;;;;;;27.40;80.00;;;;;;20790205;28;20379;-75
2023/06/17 18:16:04;;;;;;;;;;;27.50;88.80;;;;;;20811657;28;20428;-75
2023/06/17 18:26:06;;;;;;;;;;;27.10;90.30;;;;;;20828088;28;19925;-75
2023/06/17 18:36:06;;;;;;;;;;;26.20;92.40;;;;;;20804314;28;20285;-75
2023/06/17 18:46:07;;;;;;;;;;;25.60;93.10;;;;;;20810744;28;20004;-75
2023/06/17 18:56:08;;;;;;;;;;;24.60;94.20;;;;;;20820118;28;20324;-75
2023/06/17 19:06:09;;;;;;;;;;;23.80;96.20;;;;;;20828677;28;20055;-75
2023/06/17 19:16:09;;;;;;;;;;;23.60;93.40;;;;;;20843184;28;20318;-78
2023/06/17 19:26:10;;;;;;;;;;;22.10;99.40;;;;;;20835806;28;19913;-76
2023/06/17 19:36:11;;;;;;;;;;;22.10;97.00;;;;;;20794313;28;20284;-75
2023/06/17 19:46:11;;;;;;;;;;;21.20;97.60;;;;;;20793400;28;19918;-73
2023/06/17 19:56:12;;;;;;;;;;;20.40;99.30;;;;;;20747078;28;19921;-73
2023/06/17 20:06:13;;;;;;;;;;;20.70;97.80;;;;;;20753401;28;20119;-74
2023/06/17 20:16:14;;;;;;;;;;;20.50;97.50;;;;;;20744936;28;19928;-73
2023/06/17 20:26:15;;;;;;;;;;;19.90;99.90;;;;;;20744259;28;19914;-75
2023/06/17 20:36:16;;;;;;;;;;;19.80;99.90;;;;;;20785633;28;19923;-76
2023/06/17 20:46:16;;;;;;;;;;;19.80;99.90;;;;;;20825324;28;19974;-77
2023/06/17 20:56:17;;;;;;;;;;;19.90;99.90;;;;;;20825240;28;19940;-76
2023/06/17 21:06:18;;;;;;;;;;;20.10;99.90;;;;;;20841543;23;19972;-76
2023/06/17 21:16:18;;;;;;;;;;;19.90;99.90;;;;;;20816130;28;19967;-75
2023/06/17 21:26:19;;;;;;;;;;;19.40;99.90;;;;;;20758179;28;20280;-76
2023/06/17 21:36:20;;;;;;;;;;;18.80;99.90;;;;;;20757185;28;20063;-76
2023/06/17 21:46:22;;;;;;;;;;;19.20;99.90;;;;;;20756319;28;19925;-76
2023/06/17 21:56:22;;;;;;;;;;;19.20;99.90;;;;;;20762437;28;20384;-76
2023/06/17 22:06:23;;;;;;;;;;;19.00;99.90;;;;;;20712836;28;19924;-76
2023/06/17 22:16:24;;;;;;;;;;;18.80;99.90;;;;;;20748604;28;20281;-76
2023/06/17 22:26:27;;;;;;;;;;;18.60;99.90;;;;;;20710503;28;19917;-75
2023/06/17 22:36:28;;;;;;;;;;;18.80;99.90;;;;;;20730937;28;19925;-75
2023/06/17 22:46:28;;;;;;;;;;;18.40;99.90;;;;;;20716662;28;19928;-75
2023/06/17 22:56:29;;;;;;;;;;;18.30;99.90;;;;;;20716180;28;19925;-75
2023/06/17 23:06:29;;;;;;;;;;;17.80;99.90;;;;;;20732143;28;19932;-76
2023/06/17 23:16:30;;;;;;;;;;;17.70;99.90;;;;;;20715278;28;19928;-72
2023/06/17 23:26:32;;;;;;;;;;;16.70;99.90;;;;;;20712323;28;20353;-73
2023/06/17 23:36:33;;;;;;;;;;;16.90;99.90;;;;;;20687779;28;19980;-73
2023/06/17 23:46:33;;;;;;;;;;;17.00;99.90;;;;;;20679812;28;20427;-73
2023/06/17 23:56:34;;;;;;;;;;;17.40;99.90;;;;;;20746745;28;20011;-73
